Time;durP1;ratioP1;P1;durP2;ratioP2;P2;SDS_P1;SDS_P2;PMS_P1;PMS_P2;Temp;Humidity;BMP_temperature;BMP_pressure;BME280_temperature;BME280_humidity;BME280_pressure;Samples;Min_cycle;Max_cycle;Signal;HPM_P1;HPM_P2
2022/01/14 00:02:19;;;;;;;18.77;11.27;;;4.70;78.20;;;5.23;54.04;100702.44;4936876;28;114039;-84
2022/01/14 00:04:45;;;;;;;16.90;10.17;;;4.70;78.20;;;5.22;54.26;100709.81;4952695;28;112758;-84
2022/01/14 00:07:12;;;;;;;17.90;10.60;;;4.70;78.20;;;5.22;53.80;100696.13;4950737;28;124031;-84
2022/01/14 00:09:39;;;;;;;17.97;10.03;;;5.40;79.50;;;5.21;54.39;100699.94;4960101;28;122744;-83
2022/01/14 00:12:15;;;;;;;16.37;10.77;;;4.70;78.30;;;5.21;54.45;100690.84;4950823;28;114198;-84
2022/01/14 00:15:12;;;;;;;19.20;10.70;;;4.70;78.40;;;5.19;53.94;100684.78;4952575;28;114224;-86
2022/01/14 00:17:40;;;;;;;15.90;9.70;;;4.70;78.40;;;5.15;54.24;100684.41;4942762;28;124106;-85
2022/01/14 00:20:09;;;;;;;19.63;11.27;;;4.70;78.40;;;5.14;53.91;100685.47;4954785;28;123997;-85
2022/01/14 00:22:36;;;;;;;17.40;11.13;;;4.60;78.30;;;5.14;54.69;100681.91;4948433;28;114912;-84
2022/01/14 00:33:10;;;;;;;18.10;9.47;;;4.60;78.40;;;5.07;54.07;100687.44;4937168;28;114524;-83
2022/01/14 00:35:43;;;;;;;17.83;10.10;;;4.60;78.40;;;5.04;54.00;100686.00;4949557;28;113928;-86
2022/01/14 00:38:13;;;;;;;22.20;12.87;;;4.70;78.50;;;4.99;54.51;100688.59;4965670;28;122921;-84
2022/01/14 00:40:40;;;;;;;17.80;11.47;;;4.50;78.40;;;4.95;54.73;100694.78;4952233;28;123308;-85
2022/01/14 00:43:07;;;;;;;17.67;10.37;;;4.50;78.40;;;4.92;55.00;100685.13;4950069;28;114131;-87
2022/01/14 00:45:33;;;;;;;20.90;12.63;;;4.50;78.50;;;4.88;54.24;100681.97;4976889;28;113670;-86
2022/01/14 00:48:02;;;;;;;20.13;11.50;;;4.40;78.50;;;4.84;54.88;100683.50;4979373;28;123986;-84
2022/01/14 00:50:29;;;;;;;18.00;11.07;;;4.40;78.50;;;4.79;54.43;100683.38;4948153;28;122702;-85
2022/01/14 00:52:55;;;;;;;19.40;11.23;;;4.40;78.50;;;4.78;55.10;100673.47;4948784;28;113769;-85
2022/01/14 00:55:28;;;;;;;21.90;11.90;;;4.30;79.20;;;4.78;54.54;100668.00;4951316;28;113780;-86
2022/01/14 01:01:00;;;;;;;17.27;10.73;;;4.30;78.80;;;4.81;55.10;100664.81;4957086;28;123636;-83
2022/01/14 01:04:04;;;;;;;19.37;12.40;;;4.30;78.80;;;4.84;54.81;100666.25;4937955;28;113868;-85
2022/01/14 01:06:32;;;;;;;18.60;11.13;;;4.30;78.90;;;4.79;54.54;100669.66;4951202;28;114022;-84
2022/01/14 01:08:59;;;;;;;22.63;11.90;;;4.30;78.90;;;4.81;55.13;100656.59;4938455;28;122124;-84
2022/01/14 01:11:31;;;;;;;18.00;11.33;;;4.30;79.00;;;4.82;55.04;100666.47;4960032;28;123798;-86
2022/01/14 01:14:20;;;;;;;21.17;11.93;;;4.30;79.00;;;4.85;54.65;100663.28;4949422;28;114490;-85
2022/01/14 01:16:47;;;;;;;21.90;11.63;;;4.30;79.00;;;4.84;55.07;100667.09;4961122;28;114859;-86
2022/01/14 01:19:13;;;;;;;22.20;11.97;;;4.30;79.00;;;4.86;54.30;100664.97;4947407;28;123188;-83
2022/01/14 01:21:41;;;;;;;23.80;10.33;;;4.30;79.10;;;4.89;54.45;100663.66;4952346;28;123649;-82
2022/01/14 01:24:12;;;;;;;18.60;11.33;;;4.40;79.20;;;4.92;54.36;100671.41;4950936;28;114234;-85
2022/01/14 01:26:42;;;;;;;23.13;12.63;;;4.40;79.20;;;4.89;54.58;100674.63;4954087;28;114024;-83
2022/01/14 01:31:43;;;;;;;23.17;12.50;;;4.30;79.20;;;4.76;54.60;100670.13;4962498;28;123279;-82
2022/01/14 01:34:15;;;;;;;24.17;11.97;;;4.30;79.30;;;4.72;55.17;100668.06;4950322;28;113485;-82
2022/01/14 01:37:21;;;;;;;23.03;12.53;;;4.20;79.20;;;4.69;55.20;100674.84;4954334;28;114317;-82
2022/01/14 01:39:49;;;;;;;22.93;12.60;;;4.20;79.30;;;4.60;55.43;100670.72;4943739;28;124046;-85
2022/01/14 01:42:36;;;;;;;22.17;13.20;;;4.10;79.40;;;4.53;55.29;100669.97;4951500;28;123078;-85
2022/01/14 01:45:09;;;;;;;20.87;12.70;;;4.10;79.70;;;4.44;55.18;100666.69;4958314;28;114852;-83
2022/01/14 01:47:37;;;;;;;24.43;13.83;;;4.00;79.60;;;4.38;55.17;100671.16;4956222;28;114048;-85
2022/01/14 01:50:15;;;;;;;28.70;16.87;;;3.90;79.70;;;4.31;55.46;100666.81;4954923;28;122999;-83
2022/01/14 01:52:42;;;;;;;25.57;15.00;;;3.80;80.10;;;4.18;56.27;100670.50;4950024;28;124301;-79
2022/01/14 01:55:10;;;;;;;27.77;13.97;;;3.70;80.10;;;4.13;56.16;100671.16;4956462;28;114227;-83
2022/01/14 01:57:37;;;;;;;20.43;13.03;;;3.70;80.00;;;4.14;56.12;100677.50;4950972;28;113801;-80
2022/01/14 02:00:07;;;;;;;23.30;14.30;;;3.70;80.00;;;4.15;55.84;100668.22;4956285;28;124019;-83
2022/01/14 02:02:36;;;;;;;27.30;14.90;;;3.70;80.10;;;4.15;56.03;100666.31;4943149;28;123149;-80
2022/01/14 02:05:06;;;;;;;23.20;14.37;;;3.70;80.20;;;4.12;56.20;100655.81;4958377;28;114933;-80
2022/01/14 02:07:33;;;;;;;23.53;13.47;;;3.60;80.10;;;4.11;56.08;100661.50;4976422;28;113790;-79
2022/01/14 02:10:00;;;;;;;24.03;13.23;;;3.70;80.20;;;4.13;55.85;100653.91;4967258;28;123059;-85
2022/01/14 02:12:36;;;;;;;29.27;14.40;;;3.70;80.30;;;4.14;55.68;100661.91;4952401;28;123673;-84
2022/01/14 02:23:03;;;;;;;20.87;12.63;;;3.60;80.40;;;4.12;56.31;100649.53;4947241;28;124681;-84
2022/01/14 02:25:32;;;;;;;24.67;12.97;;;3.60;80.40;;;4.14;56.06;100656.44;4952733;28;114625;-85
2022/01/14 02:28:07;;;;;;;30.03;15.03;;;3.70;80.50;;;4.18;56.07;100645.88;4956095;28;114165;-84
2022/01/14 02:30:42;;;;;;;23.13;13.17;;;3.70;80.60;;;4.18;55.85;100646.72;4964221;28;124365;-87
2022/01/14 02:33:10;;;;;;;31.47;15.20;;;3.70;80.50;;;4.14;56.32;100641.94;4950690;28;123689;-83
2022/01/14 02:35:39;;;;;;;32.40;18.63;;;3.70;80.60;;;4.07;56.07;100639.25;4950986;28;114358;-86
2022/01/14 02:38:09;;;;;;;31.80;19.77;;;3.60;80.80;;;3.96;56.12;100639.97;4952374;28;114270;-85
2022/01/14 02:40:37;;;;;;;26.13;15.73;;;3.50;80.90;;;3.85;56.36;100630.59;4937101;28;122786;-86
2022/01/14 02:43:11;;;;;;;24.47;15.77;;;3.40;80.80;;;3.82;56.38;100624.75;4954438;28;122742;-82
2022/01/14 02:45:47;;;;;;;26.80;16.17;;;3.40;80.80;;;3.79;56.64;100620.56;4953395;28;114260;-84
2022/01/14 02:48:13;;;;;;;32.10;20.00;;;3.30;80.90;;;3.71;56.85;100626.31;4940755;28;112888;-83
2022/01/14 02:51:07;;;;;;;33.20;17.07;;;3.30;81.70;;;3.63;56.59;100618.41;4947525;28;124088;-86
2022/01/14 02:56:07;;;;;;;20.70;13.37;;;3.30;81.30;;;3.66;56.53;100613.31;4965630;28;115457;-84
2022/01/14 02:58:36;;;;;;;29.50;14.83;;;3.40;81.50;;;3.71;57.07;100613.47;4951152;28;114740;-85
2022/01/14 03:01:09;;;;;;;21.00;13.50;;;3.20;81.20;;;3.75;56.90;100609.22;4956415;28;124148;-82
2022/01/14 03:03:38;;;;;;;28.23;14.87;;;3.20;81.20;;;3.79;57.13;100612.38;4957907;28;123714;-84
2022/01/14 03:06:06;;;;;;;25.83;14.60;;;3.20;81.20;;;3.83;56.55;100610.84;4954049;28;113548;-84
2022/01/14 03:08:35;;;;;;;22.80;12.60;;;3.30;81.50;;;3.86;56.81;100599.47;4963199;28;113963;-84
2022/01/14 03:11:10;;;;;;;23.10;13.37;;;3.30;81.30;;;3.92;56.55;100601.31;4957229;28;124233;-81
2022/01/14 03:13:37;;;;;;;22.07;12.37;;;3.30;81.30;;;3.94;56.59;100601.06;4951868;28;124310;-79
2022/01/14 03:16:05;;;;;;;20.60;13.53;;;3.40;81.40;;;3.97;56.85;100597.88;4957700;28;114451;-83
2022/01/14 03:18:48;;;;;;;25.77;14.27;;;3.40;81.40;;;4.01;56.26;100595.56;4948693;28;113280;-82
2022/01/14 03:21:17;;;;;;;25.03;14.60;;;3.50;81.40;;;4.00;56.77;100594.69;4946605;28;124044;-84
2022/01/14 03:23:52;;;;;;;21.70;13.97;;;3.50;81.30;;;4.03;56.82;100594.28;4957070;28;122772;-81
2022/01/14 03:26:20;;;;;;;22.80;12.90;;;3.50;81.30;;;4.03;56.51;100593.41;4941974;28;113538;-81
2022/01/14 03:28:48;;;;;;;24.30;13.30;;;3.50;81.20;;;4.04;56.44;100581.44;4944405;28;114054;-84
2022/01/14 03:31:15;;;;;;;22.97;13.83;;;3.50;81.20;;;4.07;56.40;100589.19;4984753;28;123669;-82
2022/01/14 03:33:43;;;;;;;20.37;12.90;;;3.50;81.20;;;4.07;56.55;100580.97;4953382;28;123666;-82
2022/01/14 03:36:11;;;;;;;23.47;13.13;;;3.70;81.30;;;4.06;56.25;100576.59;4957514;28;113497;-83
2022/01/14 03:38:39;;;;;;;22.23;12.93;;;3.50;81.10;;;4.06;56.28;100587.53;4967999;28;113564;-82
2022/01/14 03:41:06;;;;;;;26.50;15.50;;;3.50;81.10;;;4.04;56.80;100584.16;4955107;28;123729;-84
2022/01/14 03:43:36;;;;;;;28.60;15.23;;;3.50;81.20;;;3.94;56.41;100581.94;4952273;28;123770;-83
2022/01/14 03:46:03;;;;;;;29.73;17.10;;;3.50;81.50;;;3.87;56.87;100583.88;4938823;28;113362;-83
2022/01/14 03:48:30;;;;;;;27.93;16.30;;;3.40;81.50;;;3.80;56.90;100583.97;4974289;28;115064;-82
2022/01/14 03:50:57;;;;;;;27.53;16.07;;;3.30;81.50;;;3.74;56.82;100584.88;4969719;28;123074;-84
2022/01/14 03:53:25;;;;;;;25.80;16.70;;;3.20;81.50;;;3.65;57.17;100586.19;4941878;28;122687;-85
2022/01/14 03:55:51;;;;;;;26.10;16.67;;;3.20;81.70;;;3.54;57.12;100582.28;4950235;28;114299;-84
2022/01/14 03:58:18;;;;;;;26.33;14.93;;;3.10;81.80;;;3.48;57.23;100586.75;4934374;28;112892;-84
2022/01/14 04:00:44;;;;;;;26.20;15.93;;;3.00;81.90;;;3.47;57.24;100584.25;4950746;28;123909;-84
2022/01/14 04:03:11;;;;;;;27.23;15.40;;;3.00;81.80;;;3.44;57.53;100584.66;4941271;28;124082;-81
2022/01/14 04:05:38;;;;;;;28.30;16.90;;;3.00;82.10;;;3.44;57.08;100584.66;4955540;28;114530;-84
2022/01/14 04:08:05;;;;;;;22.40;14.77;;;3.00;82.10;;;3.45;57.48;100576.25;4951416;28;114055;-83
2022/01/14 04:10:33;;;;;;;24.10;13.47;;;3.00;82.10;;;3.48;57.21;100581.28;4948630;28;124035;-83
2022/01/14 04:13:06;;;;;;;25.07;14.40;;;3.00;82.30;;;3.48;57.24;100570.34;4949542;28;123667;-83
2022/01/14 04:15:36;;;;;;;25.50;14.20;;;3.00;82.20;;;3.50;57.22;100573.69;4950875;28;114200;-83
2022/01/14 04:18:24;;;;;;;25.13;13.77;;;3.00;82.30;;;3.53;57.46;100578.72;4963445;28;113671;-82
2022/01/14 04:20:51;;;;;;;24.00;13.87;;;3.00;82.90;;;3.50;57.34;100572.88;4966755;28;124011;-83
2022/01/14 04:23:22;;;;;;;26.37;13.80;;;3.00;82.20;;;3.51;56.99;100563.59;4954419;28;123517;-85
2022/01/14 04:25:51;;;;;;;20.83;12.33;;;3.00;82.20;;;3.54;57.50;100561.25;4948900;28;114218;-86
2022/01/14 04:28:23;;;;;;;28.43;15.33;;;3.00;82.20;;;3.56;57.33;100555.56;4934310;28;113839;-86
2022/01/14 04:30:54;;;;;;;29.23;13.57;;;3.10;82.40;;;3.58;57.30;100549.91;4954640;28;124719;-84
2022/01/14 04:33:25;;;;;;;23.63;13.33;;;3.10;82.30;;;3.62;57.20;100540.19;4957101;28;123949;-86
2022/01/14 04:35:54;;;;;;;19.40;12.17;;;3.10;82.30;;;3.65;57.43;100540.56;4961814;28;115602;-85
2022/01/14 04:38:22;;;;;;;21.53;12.70;;;3.10;82.30;;;3.68;57.68;100537.41;4941872;28;114215;-85
2022/01/14 04:40:48;;;;;;;19.83;12.40;;;3.10;82.30;;;3.73;57.33;100533.97;4954779;28;123685;-84
2022/01/14 04:43:18;;;;;;;21.90;12.77;;;3.20;82.30;;;3.78;57.26;100538.78;4937790;28;122866;-84
2022/01/14 04:48:29;;;;;;;20.20;12.60;;;3.20;82.30;;;3.84;57.18;100533.25;4954871;28;114133;-87
2022/01/14 04:50:58;;;;;;;18.00;12.47;;;3.30;82.30;;;3.86;57.05;100533.84;4984258;28;123208;-85
2022/01/14 04:54:04;;;;;;;18.53;11.83;;;3.30;82.20;;;3.90;56.59;100543.28;4956962;28;122715;-86
2022/01/14 04:56:34;;;;;;;28.43;14.33;;;3.30;82.20;;;3.86;57.16;100539.31;4952694;28;114242;-84
2022/01/14 04:59:03;;;;;;;24.50;14.23;;;3.30;82.10;;;3.81;57.11;100533.69;4953251;28;114153;-83
2022/01/14 05:01:31;;;;;;;22.97;15.77;;;3.30;82.10;;;3.72;57.47;100538.59;4955884;28;124030;-80
2022/01/14 05:03:59;;;;;;;24.27;14.67;;;3.20;82.10;;;3.66;57.25;100541.41;4969723;28;123583;-79
2022/01/14 05:06:27;;;;;;;23.07;13.43;;;3.10;82.10;;;3.63;57.40;100539.13;4958630;28;116811;-83
2022/01/14 05:08:53;;;;;;;24.90;14.50;;;3.10;82.10;;;3.62;57.18;100534.72;4957913;28;113212;-81
2022/01/14 05:11:24;;;;;;;23.90;14.40;;;3.30;82.40;;;3.63;57.56;100533.66;4960718;28;124025;-79
2022/01/14 05:13:51;;;;;;;24.10;13.23;;;3.10;82.30;;;3.66;57.21;100538.69;4959232;28;124396;-81
2022/01/14 05:16:18;;;;;;;23.47;14.50;;;3.10;82.30;;;3.65;57.45;100532.34;4959480;28;114140;-84
2022/01/14 05:18:45;;;;;;;20.20;12.53;;;3.10;82.30;;;3.65;57.15;100534.25;4946975;28;114059;-85
2022/01/14 05:21:31;;;;;;;22.17;13.23;;;3.10;82.30;;;3.65;56.87;100537.00;4942280;28;124975;-80
2022/01/14 05:23:57;;;;;;;23.50;14.90;;;3.10;82.30;;;3.59;57.36;100538.72;4952640;28;123684;-85
2022/01/14 05:26:24;;;;;;;21.20;12.60;;;3.10;82.40;;;3.58;57.27;100531.59;4986330;28;115507;-82
2022/01/14 05:28:50;;;;;;;19.23;11.90;;;3.10;82.30;;;3.60;57.60;100540.41;4971043;28;114048;-80
2022/01/14 05:31:18;;;;;;;18.10;11.73;;;3.10;82.30;;;3.62;57.29;100537.44;4944870;28;122110;-81
2022/01/14 05:33:47;;;;;;;21.10;12.90;;;3.10;82.20;;;3.62;57.34;100542.91;4991201;28;123948;-81
2022/01/14 05:36:13;;;;;;;30.97;16.53;;;3.10;82.30;;;3.54;57.23;100531.19;4960478;28;114224;-79
2022/01/14 05:38:40;;;;;;;28.10;16.27;;;3.10;82.40;;;3.45;57.37;100540.75;4958586;28;113533;-83
2022/01/14 05:41:06;;;;;;;31.33;16.37;;;2.90;82.40;;;3.31;57.64;100547.38;4955629;28;122990;-79
2022/01/14 05:43:33;;;;;;;25.10;13.80;;;2.80;82.50;;;3.27;57.49;100543.41;4952821;28;124690;-81
2022/01/14 05:45:59;;;;;;;23.77;15.60;;;4.00;83.70;;;3.22;57.82;100543.22;4959233;28;113725;-85
2022/01/14 05:48:25;;;;;;;26.47;16.23;;;2.70;82.80;;;3.14;58.05;100549.78;4953210;28;113434;-84
2022/01/14 05:50:52;;;;;;;28.43;16.67;;;2.70;83.00;;;3.07;58.38;100547.09;4945445;28;123140;-84
2022/01/14 05:53:19;;;;;;;23.87;14.80;;;2.60;83.30;;;3.02;58.30;100543.38;4942973;28;122364;-82
2022/01/14 05:55:46;;;;;;;28.77;15.87;;;2.60;83.20;;;2.97;58.38;100541.28;4956427;28;114475;-83
2022/01/14 05:58:13;;;;;;;24.00;14.60;;;2.50;83.20;;;2.97;58.33;100541.28;4949375;28;114616;-83
2022/01/14 06:00:39;;;;;;;24.37;13.80;;;2.50;83.10;;;3.00;58.32;100540.00;4954705;28;123205;-85
2022/01/14 06:03:05;;;;;;;22.03;13.70;;;2.50;83.10;;;3.04;58.50;100542.09;4968245;28;123588;-84
2022/01/14 06:05:32;;;;;;;20.53;12.60;;;2.50;83.10;;;3.07;58.27;100536.19;4949569;28;114263;-86
2022/01/14 06:08:01;;;;;;;20.23;12.67;;;2.60;83.20;;;3.12;58.51;100532.81;4961169;28;113118;-85
2022/01/14 06:10:28;;;;;;;23.90;13.17;;;2.60;83.20;;;3.16;58.16;100523.09;4953959;28;125007;-86
2022/01/14 06:12:54;;;;;;;23.00;13.20;;;2.60;83.20;;;3.20;58.03;100524.34;4959349;28;122993;-85
2022/01/14 06:15:21;;;;;;;20.63;12.13;;;2.70;83.30;;;3.25;57.89;100515.47;4950179;28;115288;-87
2022/01/14 06:17:47;;;;;;;22.33;12.50;;;2.70;83.20;;;3.29;58.08;100512.06;4953043;28;114844;-83
2022/01/14 06:20:14;;;;;;;23.10;12.57;;;2.70;83.20;;;3.34;57.75;100514.13;4950189;28;123657;-82
2022/01/14 06:22:41;;;;;;;21.53;11.90;;;2.80;83.20;;;3.40;58.28;100513.25;4944551;28;124126;-87
2022/01/14 06:25:10;;;;;;;17.23;9.93;;;2.80;83.40;;;3.55;58.89;100518.38;4943084;28;114135;-86
2022/01/14 06:27:37;;;;;;;19.53;11.60;;;2.90;84.30;;;3.73;59.23;100517.56;4948852;28;114005;-86
2022/01/14 06:30:06;;;;;;;18.10;10.17;;;3.00;85.00;;;3.82;58.92;100513.50;4948482;28;123222;-87
2022/01/14 06:32:41;;;;;;;16.10;10.60;;;3.00;85.10;;;3.96;59.67;100506.00;4948221;28;123371;-87
2022/01/14 06:35:12;;;;;;;17.57;10.73;;;3.10;85.60;;;4.07;59.38;100499.75;4944486;28;114462;-86
2022/01/14 06:37:42;;;;;;;19.53;10.80;;;3.30;86.00;;;4.12;59.10;100505.38;4938273;28;114041;-87
2022/01/14 06:40:10;;;;;;;21.20;13.03;;;3.30;86.10;;;4.13;59.14;100506.22;4962903;28;121677;-87
2022/01/14 06:42:37;;;;;;;21.20;11.97;;;2.10;84.50;;;4.09;58.47;100502.28;4944731;28;122857;-85
2022/01/14 06:45:07;;;;;;;23.97;13.70;;;3.80;85.50;;;4.06;57.93;100500.00;4948906;28;114651;-85
2022/01/14 06:47:33;;;;;;;20.50;12.60;;;3.40;84.80;;;3.98;58.23;100504.69;4951690;28;113493;-85
2022/01/14 06:50:00;;;;;;;20.87;12.30;;;3.30;84.40;;;3.94;57.90;100519.88;4943802;28;123768;-87
2022/01/14 06:52:27;;;;;;;18.57;11.80;;;3.30;84.20;;;3.94;58.16;100513.56;4943191;28;123394;-85
2022/01/14 06:54:54;;;;;;;24.73;13.00;;;3.30;84.00;;;3.89;57.46;100519.72;4947246;28;112882;-83
2022/01/14 06:57:22;;;;;;;16.97;12.00;;;3.30;83.80;;;3.86;57.80;100514.69;4959572;28;113707;-88
2022/01/14 06:59:50;;;;;;;24.53;14.40;;;3.80;84.20;;;3.85;57.91;100523.16;4945189;28;123707;-85
2022/01/14 07:02:18;;;;;;;21.77;13.50;;;3.30;83.60;;;3.81;57.44;100525.47;4951629;28;122899;-87
2022/01/14 07:04:45;;;;;;;19.67;12.50;;;3.20;83.40;;;3.80;57.58;100533.91;4946126;28;114565;-84
2022/01/14 07:07:11;;;;;;;25.07;14.00;;;3.20;83.30;;;3.78;57.60;100536.03;4951111;28;114778;-80
2022/01/14 07:09:55;;;;;;;25.33;12.87;;;3.20;83.20;;;3.70;57.50;100540.72;4957021;28;124168;-85
2022/01/14 07:12:24;;;;;;;24.20;15.57;;;3.10;83.00;;;3.58;57.09;100548.00;4950829;28;123729;-87
2022/01/14 07:14:51;;;;;;;28.27;15.10;;;3.10;83.00;;;3.51;57.31;100560.88;4960491;28;113218;-86
2022/01/14 07:17:18;;;;;;;31.43;16.20;;;3.00;83.00;;;3.42;57.46;100564.94;4950518;28;114145;-87
2022/01/14 07:19:49;;;;;;;23.37;14.17;;;2.90;83.10;;;3.31;57.41;100578.25;4944145;28;124031;-87
2022/01/14 07:22:15;;;;;;;24.23;13.47;;;2.90;83.10;;;3.25;57.95;100581.00;4938971;28;122021;-85
2022/01/14 07:24:42;;;;;;;30.57;16.30;;;2.70;83.10;;;3.19;57.91;100576.44;4956431;28;114312;-86
2022/01/14 07:27:11;;;;;;;23.00;14.80;;;2.70;83.20;;;3.14;57.97;100579.81;4948714;28;113956;-86
2022/01/14 07:29:38;;;;;;;28.30;14.67;;;2.60;83.20;;;3.03;58.05;100583.25;4953849;28;124779;-87
2022/01/14 07:32:05;;;;;;;25.20;14.10;;;2.50;83.30;;;2.96;58.06;100587.94;4957267;28;122811;-85
2022/01/14 07:34:32;;;;;;;20.13;13.87;;;2.50;83.40;;;2.94;58.15;100595.50;4955542;28;113723;-88
2022/01/14 07:36:59;;;;;;;26.67;14.90;;;2.40;83.40;;;2.90;58.11;100595.06;4981360;28;114086;-82
2022/01/14 07:39:27;;;;;;;19.70;12.97;;;2.40;83.50;;;2.88;58.53;100591.75;4949479;28;123915;-80
2022/01/14 07:42:14;;;;;;;23.67;14.40;;;2.40;83.50;;;2.93;58.31;100593.81;4960899;28;123797;-84
2022/01/14 07:44:59;;;;;;;23.57;13.93;;;2.40;83.70;;;2.99;58.48;100601.16;4949229;28;113413;-84
2022/01/14 07:47:27;;;;;;;20.37;13.03;;;2.40;83.60;;;3.01;58.17;100599.88;4946983;28;114011;-84
2022/01/14 07:49:53;;;;;;;25.97;12.47;;;2.50;83.70;;;3.04;58.36;100593.97;4958383;28;123571;-85
2022/01/14 07:52:22;;;;;;;18.27;11.47;;;2.50;83.60;;;3.12;58.08;100586.56;4953300;28;123789;-86
2022/01/14 07:55:07;;;;;;;21.00;12.20;;;2.60;83.70;;;3.21;58.00;100590.72;4958610;28;115355;-84
2022/01/14 07:57:53;;;;;;;23.73;12.33;;;2.60;83.60;;;3.24;58.09;100584.81;4942270;28;113801;-85
2022/01/14 08:00:21;;;;;;;23.27;12.50;;;2.70;83.60;;;3.26;58.19;100589.00;4974769;28;124058;-86
2022/01/14 08:03:07;;;;;;;21.13;12.10;;;2.70;83.60;;;3.35;57.82;100595.03;4959573;28;123130;-85
2022/01/14 08:05:34;;;;;;;17.50;12.03;;;2.70;83.50;;;3.36;57.70;100585.78;4958510;28;114239;-86
2022/01/14 08:08:07;;;;;;;21.73;12.50;;;2.90;83.60;;;3.37;57.68;100582.00;4944272;28;114037;-85
2022/01/14 08:14:15;;;;;;;17.80;11.07;;;2.80;83.30;;;3.42;57.76;100593.09;4956592;28;124268;-86
2022/01/14 08:16:42;;;;;;;22.60;12.30;;;2.80;83.30;;;3.49;57.52;100582.97;4960738;28;113630;-83
2022/01/14 08:19:08;;;;;;;21.03;11.90;;;2.90;83.40;;;3.57;57.74;100570.91;4961573;28;113306;-82
2022/01/14 08:21:37;;;;;;;17.60;11.07;;;3.00;84.10;;;3.66;57.35;100575.03;4956804;28;124021;-84
2022/01/14 08:24:05;;;;;;;23.57;12.53;;;3.10;83.50;;;3.72;57.66;100574.13;4959621;28;124057;-82
2022/01/14 08:26:32;;;;;;;20.03;12.37;;;3.10;83.40;;;3.79;57.56;100581.44;4960593;28;114461;-84
2022/01/14 08:28:58;;;;;;;16.90;10.93;;;3.20;83.40;;;3.84;57.59;100576.13;4962632;28;114506;-82
2022/01/14 08:31:25;;;;;;;18.77;12.07;;;3.60;83.60;;;3.88;57.56;100572.75;4957148;28;123155;-85
2022/01/14 08:33:51;;;;;;;16.90;11.37;;;3.30;83.30;;;3.95;57.35;100586.38;4947086;28;122878;-81
2022/01/14 08:36:19;;;;;;;23.27;11.83;;;3.30;83.30;;;4.02;57.29;100581.66;4954018;28;113389;-82
2022/01/14 08:38:45;;;;;;;18.67;11.47;;;3.40;83.30;;;4.05;56.79;100583.94;4947817;28;114071;-79
2022/01/14 08:41:12;;;;;;;23.57;13.97;;;3.40;83.20;;;4.10;57.09;100580.53;4936640;28;124170;-79
2022/01/14 08:43:38;;;;;;;19.50;11.60;;;3.40;83.00;;;4.11;56.75;100579.44;4937400;28;123530;-78
2022/01/14 08:46:05;;;;;;;19.53;11.80;;;3.50;83.00;;;4.15;57.07;100580.69;4935764;28;115176;-80
2022/01/14 08:48:33;;;;;;;22.20;11.53;;;3.50;83.00;;;4.19;56.84;100587.34;4940333;28;114866;-78
2022/01/14 08:51:00;;;;;;;20.90;12.23;;;3.60;83.10;;;4.23;56.75;100587.75;4935001;28;124183;-78
2022/01/14 08:53:27;;;;;;;18.70;11.03;;;3.60;83.00;;;4.28;56.64;100585.19;4948795;28;123051;-86
2022/01/14 08:55:55;;;;;;;19.10;12.33;;;3.60;83.00;;;4.30;56.90;100583.91;4929729;28;113246;-85
2022/01/14 08:58:22;;;;;;;20.67;11.40;;;3.60;82.90;;;4.30;56.72;100578.44;4936939;28;113658;-84
2022/01/14 09:00:49;;;;;;;21.57;11.47;;;3.60;82.70;;;4.32;56.91;100575.44;4974645;28;124311;-85
2022/01/14 09:03:18;;;;;;;22.67;11.93;;;3.70;82.80;;;4.34;56.55;100568.69;4947694;28;122054;-83
2022/01/14 09:05:44;;;;;;;22.20;12.27;;;3.70;82.70;;;4.37;56.52;100567.38;4972674;28;114112;-86
2022/01/14 09:08:11;;;;;;;18.67;12.97;;;3.80;82.70;;;4.41;56.28;100574.09;4948067;28;113361;-84
2022/01/14 09:10:39;;;;;;;19.93;13.00;;;4.20;83.00;;;4.46;56.64;100565.19;4947206;28;124100;-85
2022/01/14 09:13:06;;;;;;;24.97;12.50;;;3.80;82.60;;;4.50;56.17;100578.19;4946781;28;123551;-83
2022/01/14 09:15:34;;;;;;;20.03;11.20;;;3.80;82.60;;;4.56;56.17;100566.31;4948485;28;114199;-83
2022/01/14 09:18:00;;;;;;;21.33;11.60;;;3.90;82.60;;;4.59;56.27;100565.88;4952841;28;113675;-81
2022/01/14 09:20:28;;;;;;;28.10;13.03;;;3.90;82.70;;;4.64;55.91;100570.66;4967815;28;123207;-84
2022/01/14 09:22:57;;;;;;;19.70;10.90;;;4.00;82.70;;;4.68;56.43;100573.78;4952724;28;124821;-84
2022/01/14 09:25:25;;;;;;;22.97;12.90;;;4.00;82.50;;;4.70;56.25;100566.16;4954005;28;114371;-86
2022/01/14 09:27:52;;;;;;;25.77;13.90;;;4.10;82.50;;;4.72;56.16;100559.38;4957966;28;114480;-84
2022/01/14 09:30:23;;;;;;;24.60;12.07;;;4.10;82.50;;;4.77;56.08;100564.16;4956033;28;123969;-82
2022/01/14 09:32:51;;;;;;;23.77;13.13;;;4.10;82.40;;;4.80;56.36;100570.00;4955825;28;123523;-81
2022/01/14 09:35:18;;;;;;;25.53;15.00;;;4.20;82.40;;;4.84;56.74;100568.50;4938836;28;112959;-85
2022/01/14 09:37:45;;;;;;;28.83;15.03;;;4.20;83.10;;;4.91;57.95;100562.09;4948907;28;114808;-86
2022/01/14 09:40:16;;;;;;;23.30;14.03;;;4.30;85.10;;;5.00;57.77;100572.50;4953322;28;124171;-80
2022/01/14 09:42:50;;;;;;;22.50;13.10;;;4.30;84.60;;;5.12;57.95;100564.31;4954805;28;124043;-87
2022/01/14 09:45:21;;;;;;;21.73;13.33;;;4.40;84.70;;;5.17;57.46;100572.66;4949735;28;114131;-82
2022/01/14 09:47:50;;;;;;;22.43;12.30;;;4.50;84.40;;;5.26;56.66;100570.44;4949710;28;113617;-85
2022/01/14 09:50:18;;;;;;;19.83;12.03;;;4.60;84.20;;;5.34;56.91;100566.53;4949880;28;123981;-85
2022/01/14 09:52:47;;;;;;;27.07;12.40;;;4.70;84.00;;;5.36;56.73;100569.88;4947378;28;123732;-87
2022/01/14 09:55:14;;;;;;;19.93;12.47;;;4.70;83.30;;;5.38;56.52;100567.75;4939222;28;114347;-81
2022/01/14 09:57:40;;;;;;;20.80;13.30;;;4.70;83.10;;;5.42;55.61;100574.41;4924778;28;113058;-81
2022/01/14 10:00:08;;;;;;;22.50;12.87;;;5.80;83.90;;;5.46;56.19;100560.00;4949475;28;123959;-82
2022/01/14 10:02:38;;;;;;;22.90;12.77;;;4.80;82.90;;;5.50;55.45;100566.66;4949474;28;123127;-83
2022/01/14 10:05:09;;;;;;;21.47;13.60;;;4.90;82.80;;;5.53;55.25;100560.75;4938832;28;114308;-84
2022/01/14 10:07:36;;;;;;;23.90;15.10;;;4.90;82.80;;;5.58;55.17;100561.94;4963057;28;114832;-83
2022/01/14 10:10:24;;;;;;;22.47;13.23;;;4.90;82.30;;;5.65;55.45;100563.50;4957472;28;124135;-86
2022/01/14 10:12:51;;;;;;;24.53;13.87;;;5.00;81.90;;;5.66;55.20;100559.66;4937751;28;123852;-87
2022/01/14 10:15:17;;;;;;;20.47;12.60;;;5.00;81.90;;;5.70;54.96;100554.56;4938812;28;114151;-85
2022/01/14 10:17:46;;;;;;;17.70;11.23;;;5.10;81.90;;;5.78;54.82;100556.94;4942620;28;114793;-85
2022/01/14 10:20:15;;;;;;;19.07;11.20;;;5.10;81.90;;;5.84;54.94;100560.66;4943800;28;123731;-88
2022/01/14 10:22:48;;;;;;;27.87;11.90;;;5.20;81.80;;;5.93;54.78;100557.31;4953296;28;124102;-88
2022/01/14 10:25:20;;;;;;;25.30;12.83;;;5.20;81.90;;;6.02;55.10;100556.97;4949687;28;115253;-87
2022/01/14 10:27:51;;;;;;;23.27;13.30;;;5.30;81.80;;;6.08;54.36;100551.38;4939512;28;115005;-87
2022/01/14 10:30:45;;;;;;;26.17;15.10;;;5.40;81.60;;;6.12;54.19;100552.53;4970199;28;124060;-86
2022/01/14 10:33:12;;;;;;;22.83;13.67;;;5.40;80.60;;;6.13;53.96;100543.25;4924731;28;122930;-87
2022/01/14 10:35:43;;;;;;;20.80;13.70;;;5.50;80.80;;;6.20;53.83;100543.94;4926319;28;113904;-87
2022/01/14 10:38:19;;;;;;;18.63;11.70;;;5.50;80.70;;;6.32;53.97;100537.63;4930111;28;113801;-86
2022/01/14 10:40:51;;;;;;;15.87;10.77;;;5.60;80.80;;;6.44;53.50;100541.16;4930914;28;124076;-87
2022/01/14 10:43:23;;;;;;;20.17;11.80;;;5.70;80.80;;;6.55;53.66;100532.06;4930236;28;122014;-84
2022/01/14 10:45:51;;;;;;;24.50;12.10;;;6.20;81.20;;;6.67;53.55;100531.22;4928801;28;112776;-87
2022/01/14 10:48:34;;;;;;;18.43;12.13;;;5.90;80.70;;;6.78;53.13;100527.56;4914489;28;112607;-87